Mapes, North Dakota
Current Conditions -  °F | °C
As of 11:15 AM on Friday 24 Oct 2014 (Local Time) from KDVL Reporting Station
Few Clouds Few Clouds  
Wind Chill: 61°   Ceiling: Unl
Heat Index: 61°   Visibility: 10mi
Dew Point: 41°   Wind: 16mph
Humidity: 48%   Direction: 260°W
Pressure: 29.79"   Gusts: 22mph
Location:  48.021°N, 98.3447°W
Report Text: KDVL 241615Z AUTO 26014G19KT 10SM FEW120 16/05 A2979 RMK AO1
Loading
Personal Weather Stations






























Interactive Weather Map
Tropical Storm Tracking
New forecast layout! Learn more

10-Day Weather Forecast

Advertisements
Track Severe Weather on mobile